Time;durP1;ratioP1;P1;durP2;ratioP2;P2;SDS_P1;SDS_P2;PMS_P1;PMS_P2;Temp;Humidity;BMP_temperature;BMP_pressure;BME280_temperature;BME280_humidity;BME280_pressure;Samples;Min_cycle;Max_cycle;Signal;HPM_P1;HPM_P2
2023/07/30 00:01:15;;;;;;;87.07;82.90;;;;;;;22.72;50.47;100827.34;4990720;28;20166;-76
2023/07/30 00:03:41;;;;;;;83.63;79.65;;;;;;;22.72;50.43;100832.03;4991538;28;20461;-76
2023/07/30 00:06:06;;;;;;;83.10;78.60;;;;;;;22.68;50.42;100832.69;4990075;28;20057;-76
2023/07/30 00:08:31;;;;;;;82.35;77.10;;;;;;;22.67;50.42;100833.00;4999324;28;20097;-76
2023/07/30 00:11:00;;;;;;;81.13;77.15;;;;;;;22.65;50.98;100833.34;4984959;28;20391;-77
2023/07/30 00:13:26;;;;;;;79.15;75.38;;;;;;;22.62;50.73;100836.72;4972324;28;20031;-76
2023/07/30 00:15:51;;;;;;;81.22;77.53;;;;;;;22.60;50.49;100840.91;4985975;28;20050;-76
2023/07/30 00:18:16;;;;;;;79.78;75.50;;;;;;;22.59;50.80;100836.56;4993405;28;20039;-77
2023/07/30 00:20:42;;;;;;;77.68;73.88;;;;;;;22.56;50.65;100839.97;4982837;28;20045;-78
2023/07/30 00:23:07;;;;;;;77.20;73.55;;;;;;;22.54;50.60;100844.97;4987556;28;20039;-76
2023/07/30 00:25:33;;;;;;;76.53;72.80;;;;;;;22.53;50.48;100846.09;4975984;28;20117;-77
2023/07/30 00:27:58;;;;;;;76.47;72.78;;;;;;;22.49;50.59;100848.69;4975386;28;20035;-78
2023/07/30 00:30:24;;;;;;;77.70;73.75;;;;;;;22.46;50.59;100850.13;4958334;28;20427;-76
2023/07/30 00:32:49;;;;;;;77.78;73.82;;;;;;;22.44;50.82;100843.31;4996181;28;20039;-76
2023/07/30 00:35:15;;;;;;;77.20;73.63;;;;;;;22.42;50.80;100843.63;4977082;28;20455;-76
2023/07/30 00:37:41;;;;;;;77.43;73.72;;;;;;;22.40;50.69;100843.16;4975731;28;20035;-76
2023/07/30 00:40:07;;;;;;;77.93;73.90;;;;;;;22.39;50.35;100837.97;4975627;28;20035;-77
2023/07/30 00:42:32;;;;;;;78.43;74.40;;;;;;;22.36;50.61;100839.41;4977691;28;20141;-76
2023/07/30 00:44:57;;;;;;;78.72;74.82;;;;;;;22.34;50.60;100836.16;4989378;28;20110;-76
2023/07/30 00:47:23;;;;;;;77.70;74.00;;;;;;;22.32;50.34;100841.19;4974118;28;20031;-76
2023/07/30 00:49:49;;;;;;;74.97;70.68;;;;;;;22.31;50.42;100842.31;4974742;28;20463;-75
2023/07/30 00:52:18;;;;;;;76.97;73.18;;;;;;;22.29;50.40;100847.34;4985277;28;20035;-76
2023/07/30 00:54:43;;;;;;;;;;;;;;;22.27;50.49;100855.09;4994972;28;20366;-76
2023/07/30 00:57:10;;;;;;;74.95;71.00;;;;;;;22.22;50.61;100846.97;4988525;28;19918;-77
2023/07/30 00:59:36;;;;;;;76.70;73.05;;;;;;;22.21;50.37;100859.13;4975103;28;20030;-77
2023/07/30 01:02:03;;;;;;;76.53;72.78;;;;;;;22.19;50.61;100855.84;4985892;28;20039;-77
2023/07/30 01:04:29;;;;;;;76.90;72.88;;;;;;;22.17;50.41;100869.09;4980979;28;20027;-77
2023/07/30 01:06:54;;;;;;;77.47;73.45;;;;;;;22.16;50.65;100873.00;4993516;28;20051;-77
2023/07/30 01:09:20;;;;;;;75.65;72.13;;;;;;;22.13;50.42;100871.69;4982355;28;20065;-78
2023/07/30 01:11:46;;;;;;;77.15;73.38;;;;;;;22.11;51.06;100879.44;4973794;28;20046;-77
2023/07/30 01:14:14;;;;;;;77.78;73.80;;;;;;;22.08;50.63;100882.84;4983767;28;20038;-77
2023/07/30 01:16:39;;;;;;;76.03;72.00;;;;;;;22.07;50.41;100883.13;4981314;28;20030;-79
2023/07/30 01:19:06;;;;;;;77.55;73.32;;;;;;;22.05;50.55;100877.97;4980864;28;20038;-76
2023/07/30 01:21:35;;;;;;;75.80;71.85;;;;;;;22.03;50.81;100882.97;4991897;28;20046;-77
2023/07/30 01:24:01;;;;;;;77.07;73.22;;;;;;;22.00;50.35;100889.91;4980146;28;20100;-76
2023/07/30 01:26:35;;;;;;;76.25;72.32;;;;;;;21.98;50.50;100883.13;4975215;28;20062;-78
2023/07/30 01:29:03;;;;;;;77.65;73.78;;;;;;;21.96;50.75;100888.13;4988481;28;20065;-78
2023/07/30 01:31:30;;;;;;;74.78;70.93;;;;;;;21.94;50.76;100887.63;4974927;28;20031;-77
2023/07/30 01:33:56;;;;;;;74.55;71.03;;;;;;;21.92;50.71;100881.63;4994698;28;20045;-78
2023/07/30 01:36:22;;;;;;;74.18;70.60;;;;;;;21.91;50.70;100893.75;4976433;28;20047;-78
2023/07/30 01:38:50;;;;;;;73.53;70.07;;;;;;;21.90;50.98;100894.84;4992459;28;20034;-77
2023/07/30 01:41:15;;;;;;;72.63;69.10;;;;;;;21.87;50.92;100892.75;4981322;28;20064;-78
2023/07/30 01:43:41;;;;;;;73.22;69.78;;;;;;;21.85;50.86;100900.50;4982039;28;20309;-78
2023/07/30 01:46:06;;;;;;;75.57;71.90;;;;;;;21.81;50.80;100898.38;4998561;28;20169;-77
2023/07/30 01:48:31;;;;;;;76.70;72.38;;;;;;;21.81;50.80;100903.06;4989560;28;20038;-77
2023/07/30 01:50:57;;;;;;;75.53;71.55;;;;;;;21.78;50.77;100901.75;4973859;28;20031;-76
2023/07/30 01:53:22;;;;;;;74.82;70.85;;;;;;;21.77;50.45;100900.16;4974324;28;20045;-76
2023/07/30 01:55:48;;;;;;;72.82;69.32;;;;;;;21.76;51.01;100908.69;4977600;28;20038;-77
2023/07/30 01:58:13;;;;;;;72.35;68.75;;;;;;;21.74;50.88;100902.69;5008370;28;20126;-78
2023/07/30 02:00:39;;;;;;;76.63;72.47;;;;;;;21.72;50.65;100899.44;4984967;28;20395;-77
2023/07/30 02:03:05;;;;;;;76.38;72.30;;;;;;;21.70;51.05;100897.03;4979280;28;20375;-77
2023/07/30 02:05:30;;;;;;;73.72;70.15;;;;;;;21.68;50.70;100895.72;4980276;28;20471;-78
2023/07/30 02:07:56;;;;;;;76.75;72.47;;;;;;;21.66;50.72;100882.28;4974285;28;20039;-78
2023/07/30 02:10:26;;;;;;;74.75;71.22;;;;;;;21.65;50.97;100896.34;4993972;28;20559;-77
2023/07/30 02:12:52;;;;;;;74.18;70.28;;;;;;;21.62;50.95;100889.56;4986782;28;20042;-77
2023/07/30 02:15:17;;;;;;;71.65;67.93;;;;;;;21.61;51.09;100887.91;4973136;28;20039;-77
2023/07/30 02:17:42;;;;;;;73.15;69.70;;;;;;;21.59;50.91;100890.97;4977021;28;21177;-78
2023/07/30 02:20:08;;;;;;;73.45;69.55;;;;;;;21.58;50.73;100880.28;4991302;28;20039;-78
2023/07/30 02:22:34;;;;;;;72.55;69.05;;;;;;;21.56;50.80;100874.28;5003466;28;20034;-78
2023/07/30 02:24:59;;;;;;;72.70;68.47;;;;;;;21.55;51.02;100878.19;4991762;28;20486;-77
2023/07/30 02:27:25;;;;;;;75.10;71.50;;;;;;;21.53;51.13;100874.94;4993014;28;20089;-77
2023/07/30 02:29:50;;;;;;;76.85;72.53;;;;;;;21.51;50.95;100875.22;4981870;28;20126;-76
2023/07/30 02:32:16;;;;;;;74.40;70.80;;;;;;;21.49;50.86;100871.16;4973644;28;20050;-76
2023/07/30 02:34:41;;;;;;;72.90;69.40;;;;;;;21.49;51.04;100876.66;4975236;28;20035;-78
2023/07/30 02:37:07;;;;;;;74.43;70.57;;;;;;;21.46;50.88;100872.59;4988433;28;20037;-78
2023/07/30 02:39:32;;;;;;;74.28;70.63;;;;;;;21.45;50.67;100873.75;4985038;28;20042;-77
2023/07/30 02:41:58;;;;;;;73.20;69.60;;;;;;;21.44;50.99;100869.34;4983473;28;20038;-79
2023/07/30 02:44:23;;;;;;;75.25;70.63;;;;;;;21.43;51.00;100877.94;4971641;28;20126;-77
2023/07/30 02:46:48;;;;;;;73.55;69.30;;;;;;;21.41;50.89;100885.66;4980364;28;20030;-78
2023/07/30 02:49:14;;;;;;;76.65;72.10;;;;;;;21.40;50.62;100887.63;4995594;28;20035;-78
2023/07/30 02:51:39;;;;;;;77.07;72.75;;;;;;;21.39;50.82;100885.97;4973150;28;20034;-77
2023/07/30 02:54:07;;;;;;;72.97;69.00;;;;;;;21.36;50.82;100875.56;4972610;28;20034;-77
2023/07/30 02:56:32;;;;;;;75.80;71.47;;;;;;;21.35;50.88;100876.72;4982927;28;20081;-77
2023/07/30 02:58:59;;;;;;;71.75;67.93;;;;;;;21.34;51.12;100880.56;4982523;28;20460;-77
2023/07/30 03:01:24;;;;;;;72.70;69.05;;;;;;;21.32;50.56;100874.59;4972801;28;20435;-78
2023/07/30 03:03:50;;;;;;;71.97;68.35;;;;;;;21.31;50.78;100876.50;4982818;28;20030;-77
2023/07/30 03:06:16;;;;;;;72.43;68.85;;;;;;;21.30;51.20;100876.84;4991650;28;20050;-78
2023/07/30 03:08:43;;;;;;;70.13;66.47;;;;;;;21.29;51.21;100875.19;4984173;28;20035;-78
2023/07/30 03:11:08;;;;;;;72.50;68.60;;;;;;;21.28;51.16;100876.34;4972833;28;20117;-77
2023/07/30 03:13:34;;;;;;;72.60;68.97;;;;;;;21.26;50.68;100876.63;4972808;28;20121;-78
2023/07/30 03:15:59;;;;;;;71.60;67.55;;;;;;;21.25;51.28;100876.97;4974706;28;20432;-78
2023/07/30 03:18:25;;;;;;;74.03;70.15;;;;;;;21.25;51.22;100879.72;4975735;28;20058;-79
2023/07/30 03:20:50;;;;;;;71.55;67.93;;;;;;;21.24;51.20;100880.81;4973012;28;20145;-78
2023/07/30 03:23:16;;;;;;;72.85;69.07;;;;;;;21.22;51.36;100883.06;4975345;28;20537;-78
2023/07/30 03:25:41;;;;;;;72.28;68.47;;;;;;;21.20;51.15;100877.09;4977962;28;20035;-77
2023/07/30 03:28:06;;;;;;;72.40;68.63;;;;;;;21.20;51.16;100886.13;4986374;28;20031;-77
2023/07/30 03:30:32;;;;;;;72.32;68.45;;;;;;;21.18;51.06;100878.19;4973347;28;20034;-77
2023/07/30 03:32:57;;;;;;;70.97;67.22;;;;;;;21.15;50.79;100883.50;4990224;28;20172;-77
2023/07/30 03:35:23;;;;;;;70.22;66.82;;;;;;;21.15;51.21;100884.31;5006518;28;20391;-77
2023/07/30 03:37:48;;;;;;;71.30;67.18;;;;;;;21.14;51.20;100884.59;4981772;28;20042;-78
2023/07/30 03:40:13;;;;;;;71.43;67.88;;;;;;;21.13;51.08;100883.00;4971965;28;20118;-78
2023/07/30 03:42:39;;;;;;;72.38;68.57;;;;;;;21.12;51.01;100884.94;4984862;28;20034;-78
2023/07/30 03:45:05;;;;;;;71.88;68.30;;;;;;;21.10;51.23;100889.94;4972193;28;20081;-78
2023/07/30 03:47:30;;;;;;;68.18;64.78;;;;;;;21.11;50.91;100887.97;4971992;28;20387;-79
2023/07/30 03:49:56;;;;;;;71.00;66.72;;;;;;;21.08;51.42;100883.91;4988813;28;20041;-78
2023/07/30 03:52:21;;;;;;;74.20;69.95;;;;;;;21.08;51.42;100885.88;4976407;28;20034;-78
2023/07/30 03:54:46;;;;;;;70.45;66.53;;;;;;;21.07;51.31;100887.81;4976322;28;20542;-78
2023/07/30 03:57:12;;;;;;;72.95;69.18;;;;;;;21.06;51.39;100885.34;4987285;28;20042;-78
2023/07/30 03:59:37;;;;;;;70.47;66.38;;;;;;;21.03;51.01;100886.78;4997152;28;20084;-78
2023/07/30 04:02:04;;;;;;;71.85;67.78;;;;;;;21.04;51.07;100885.69;4976187;28;20023;-78
2023/07/30 04:04:29;;;;;;;70.45;66.75;;;;;;;21.03;50.87;100892.28;4994463;28;20490;-78
2023/07/30 04:06:55;;;;;;;72.43;68.47;;;;;;;21.02;51.39;100893.41;4993476;28;20042;-78
2023/07/30 04:09:20;;;;;;;71.72;68.25;;;;;;;21.02;51.45;100898.09;4990793;28;20526;-78
2023/07/30 04:11:46;;;;;;;70.40;67.07;;;;;;;21.00;50.96;100898.41;4975861;28;20033;-79
2023/07/30 04:14:11;;;;;;;71.47;67.75;;;;;;;21.00;51.31;100900.34;4975295;28;20049;-78
2023/07/30 04:16:37;;;;;;;70.90;67.10;;;;;;;20.99;51.57;100899.53;4991685;28;20026;-79
2023/07/30 04:19:02;;;;;;;72.78;67.18;;;;;;;20.97;51.35;100893.53;4989754;28;20126;-82
2023/07/30 04:21:27;;;;;;;72.30;68.20;;;;;;;20.96;51.39;100905.63;4990110;28;20037;-78
2023/07/30 04:23:53;;;;;;;73.20;69.38;;;;;;;20.95;51.11;100909.50;4989353;28;20439;-77
2023/07/30 04:26:18;;;;;;;71.28;67.40;;;;;;;20.94;51.14;100913.34;4987112;28;20470;-78
2023/07/30 04:28:43;;;;;;;74.15;70.22;;;;;;;20.93;51.08;100914.47;4993484;28;20042;-78
2023/07/30 04:31:09;;;;;;;71.65;68.25;;;;;;;20.92;51.23;100912.88;4994110;28;20057;-77
2023/07/30 04:33:34;;;;;;;71.05;66.90;;;;;;;20.91;51.53;100908.47;4995055;28;20057;-77
2023/07/30 04:36:00;;;;;;;71.53;67.93;;;;;;;20.90;51.49;100904.94;4999353;28;20042;-81
2023/07/30 04:38:25;;;;;;;72.35;68.03;;;;;;;20.90;51.27;100906.88;4985798;28;20043;-77
2023/07/30 04:40:51;;;;;;;70.47;66.78;;;;;;;20.90;51.69;100904.13;4975552;28;20041;-78
2023/07/30 04:43:16;;;;;;;69.32;66.05;;;;;;;20.88;51.29;100912.66;4974948;28;20555;-78
2023/07/30 04:45:42;;;;;;;71.38;67.15;;;;;;;20.86;51.10;100911.34;4979159;28;20038;-78
2023/07/30 04:48:08;;;;;;;71.00;67.00;;;;;;;20.86;51.25;100914.88;4990016;28;20435;-78
2023/07/30 04:50:33;;;;;;;71.93;67.40;;;;;;;20.85;51.52;100909.72;4974462;28;20038;-78
2023/07/30 04:52:58;;;;;;;71.38;66.85;;;;;;;20.84;51.46;100914.41;4974641;28;20065;-76
2023/07/30 04:55:24;;;;;;;69.65;65.28;;;;;;;20.83;51.26;100923.75;4992505;28;20030;-76
2023/07/30 04:57:49;;;;;;;69.22;64.85;;;;;;;20.83;51.53;100917.44;4992932;28;20058;-77
2023/07/30 05:00:15;;;;;;;69.35;65.50;;;;;;;20.82;51.21;100922.13;5001324;28;20046;-77
2023/07/30 05:02:40;;;;;;;70.93;66.60;;;;;;;20.81;51.82;100927.91;4994270;28;20026;-77
2023/07/30 05:05:06;;;;;;;72.82;68.75;;;;;;;20.80;51.23;100932.59;4978534;28;20125;-77
2023/07/30 05:07:31;;;;;;;69.55;65.80;;;;;;;20.81;51.70;100938.91;4974722;28;20058;-77
2023/07/30 05:09:57;;;;;;;68.38;64.38;;;;;;;20.80;51.31;100929.06;4984843;28;20047;-77
2023/07/30 05:12:22;;;;;;;71.43;67.13;;;;;;;20.78;51.60;100929.34;4981036;28;20054;-77
2023/07/30 05:14:48;;;;;;;71.45;67.53;;;;;;;20.78;51.81;100937.59;4958604;28;20395;-77
2023/07/30 05:17:13;;;;;;;71.32;67.25;;;;;;;20.77;51.61;100933.22;4975002;28;20031;-77
2023/07/30 05:19:39;;;;;;;72.32;68.32;;;;;;;20.77;51.46;100926.94;4974627;28;20368;-77
2023/07/30 05:22:05;;;;;;;72.45;68.13;;;;;;;20.75;51.38;100930.78;4981614;28;20076;-77
2023/07/30 05:24:31;;;;;;;72.45;67.90;;;;;;;20.75;51.77;100928.03;4983183;28;20461;-78
2023/07/30 05:26:56;;;;;;;68.38;64.28;;;;;;;20.74;51.45;100925.59;4973203;28;20531;-77
2023/07/30 05:29:22;;;;;;;71.90;67.82;;;;;;;20.74;51.78;100922.88;4984610;28;20043;-77
2023/07/30 05:31:47;;;;;;;70.63;66.50;;;;;;;20.73;52.00;100919.28;4975652;28;20122;-78
2023/07/30 05:34:12;;;;;;;73.00;68.72;;;;;;;20.72;51.68;100925.91;4979468;28;20474;-78
2023/07/30 05:36:38;;;;;;;74.13;69.38;;;;;;;20.72;51.79;100925.91;4994443;28;20031;-77
2023/07/30 05:39:03;;;;;;;72.50;68.00;;;;;;;20.72;51.79;100916.84;4986246;28;20070;-78
2023/07/30 05:41:28;;;;;;;70.40;66.38;;;;;;;20.71;51.65;100927.03;4973912;28;20050;-78
2023/07/30 05:43:54;;;;;;;70.63;66.13;;;;;;;20.71;51.58;100927.03;4990030;28;20113;-78
2023/07/30 05:46:19;;;;;;;72.40;67.72;;;;;;;20.69;51.61;100926.53;4993029;28;20478;-77
2023/07/30 05:48:45;;;;;;;74.18;68.88;;;;;;;20.69;51.68;100934.75;4991615;28;20035;-78
2023/07/30 05:51:10;;;;;;;69.30;65.65;;;;;;;20.69;51.86;100937.50;4974311;28;20070;-78
2023/07/30 05:53:35;;;;;;;70.57;66.32;;;;;;;20.68;51.65;100929.56;4973668;28;20462;-78
2023/07/30 05:56:01;;;;;;;68.88;64.95;;;;;;;20.68;52.02;100935.84;4989138;28;20070;-78
2023/07/30 05:58:26;;;;;;;71.97;67.60;;;;;;;20.67;51.62;100931.50;4982525;28;20110;-78
2023/07/30 06:00:52;;;;;;;69.10;64.80;;;;;;;20.67;51.96;100931.50;5004302;28;20040;-78
2023/07/30 06:03:18;;;;;;;68.18;64.15;;;;;;;20.66;51.65;100929.03;4991630;28;20498;-77
2023/07/30 06:05:44;;;;;;;67.05;62.65;;;;;;;20.66;51.88;100932.63;4974474;28;20047;-77
2023/07/30 06:08:09;;;;;;;70.93;67.07;;;;;;;20.66;51.97;100937.28;4973785;28;20122;-78
2023/07/30 06:10:36;;;;;;;69.47;64.78;;;;;;;20.65;51.90;100936.47;4983544;28;20041;-76
2023/07/30 06:13:02;;;;;;;67.75;63.08;;;;;;;20.66;51.82;100940.03;4973827;28;20513;-76
2023/07/30 06:15:28;;;;;;;70.93;66.78;;;;;;;20.65;51.79;100943.91;4974309;28;20396;-76
2023/07/30 06:17:53;;;;;;;68.32;64.10;;;;;;;20.65;52.10;100941.16;4992615;28;20065;-75
2023/07/30 06:20:19;;;;;;;67.32;63.17;;;;;;;20.64;51.86;100934.84;4976466;28;20149;-76
2023/07/30 06:22:44;;;;;;;68.03;64.13;;;;;;;20.63;52.06;100933.22;4987516;28;20030;-76
2023/07/30 06:25:09;;;;;;;65.82;62.30;;;;;;;20.64;52.19;100934.06;4982915;28;20441;-76
2023/07/30 06:27:35;;;;;;;67.40;63.47;;;;;;;20.63;52.11;100946.94;4988195;28;20035;-76
2023/07/30 06:30:00;;;;;;;64.07;60.67;;;;;;;20.63;52.04;100940.66;4973027;28;20606;-76
2023/07/30 06:32:26;;;;;;;68.55;64.20;;;;;;;20.62;52.20;100939.84;4982891;28;20046;-76
2023/07/30 06:34:51;;;;;;;69.30;65.20;;;;;;;20.62;51.61;100948.06;4982366;28;20034;-76
2023/07/30 06:37:17;;;;;;;68.57;64.38;;;;;;;20.62;51.78;100944.53;4986531;28;20047;-77
2023/07/30 06:39:42;;;;;;;69.70;65.57;;;;;;;20.61;52.26;100951.91;4968653;28;20042;-76
2023/07/30 06:42:08;;;;;;;67.65;64.03;;;;;;;20.62;52.12;100950.00;4991684;28;20027;-76
2023/07/30 06:44:34;;;;;;;67.53;63.42;;;;;;;20.62;52.27;100950.00;4991109;28;20065;-77
2023/07/30 06:46:59;;;;;;;66.68;62.80;;;;;;;20.61;51.67;100957.41;4992325;28;20034;-76
2023/07/30 06:49:25;;;;;;;66.82;62.88;;;;;;;20.61;52.18;100949.16;4990694;28;20038;-78
2023/07/30 06:51:50;;;;;;;65.88;62.65;;;;;;;20.61;52.03;100951.09;4989203;28;20121;-77
2023/07/30 06:54:15;;;;;;;65.72;61.90;;;;;;;20.62;51.74;100944.53;4973087;28;20031;-77
2023/07/30 06:56:41;;;;;;;66.97;62.65;;;;;;;20.61;52.22;100951.09;4981424;28;20026;-78
2023/07/30 06:59:06;;;;;;;64.70;60.90;;;;;;;20.60;52.14;100953.03;4974528;28;20369;-78
2023/07/30 07:01:31;;;;;;;67.07;63.05;;;;;;;20.60;52.38;100953.03;4977936;28;20031;-77
2023/07/30 07:03:57;;;;;;;68.93;64.63;;;;;;;20.61;52.22;100951.09;4975798;28;20101;-77
2023/07/30 07:06:22;;;;;;;65.13;61.72;;;;;;;20.62;52.19;100953.56;4972608;28;20055;-76
2023/07/30 07:08:48;;;;;;;64.28;60.78;;;;;;;20.62;52.37;100947.25;4972381;28;20546;-77
2023/07/30 07:11:13;;;;;;;67.95;63.97;;;;;;;20.62;51.89;100950.00;4980330;28;20109;-76
2023/07/30 07:13:38;;;;;;;70.10;65.13;;;;;;;20.63;52.00;100952.44;5002432;28;20402;-76
2023/07/30 07:16:04;;;;;;;66.50;62.63;;;;;;;20.63;52.31;100946.13;4975724;28;20038;-76
2023/07/30 07:18:29;;;;;;;65.68;61.60;;;;;;;20.63;52.42;100957.09;4976749;28;20058;-76
2023/07/30 07:20:55;;;;;;;66.15;62.50;;;;;;;20.63;52.50;100946.13;4979150;28;20038;-77
2023/07/30 07:23:20;;;;;;;67.50;63.72;;;;;;;20.63;52.38;100954.38;4980282;28;20034;-76
2023/07/30 07:25:46;;;;;;;66.30;62.90;;;;;;;20.63;52.14;100955.19;4978186;28;20039;-77
2023/07/30 07:28:11;;;;;;;65.47;62.05;;;;;;;20.63;52.14;100963.41;4979048;28;20030;-76
2023/07/30 07:30:37;;;;;;;67.25;63.75;;;;;;;20.64;52.33;100961.50;4994877;28;20157;-77
2023/07/30 07:33:03;;;;;;;65.57;61.75;;;;;;;20.66;52.56;100970.22;4980945;28;20053;-76
2023/07/30 07:35:28;;;;;;;68.90;62.75;;;;;;;20.65;52.29;100971.34;4989460;28;20034;-77
2023/07/30 07:37:53;;;;;;;64.70;61.10;;;;;;;20.66;52.49;100968.31;4982810;28;20031;-76
2023/07/30 07:40:19;;;;;;;65.47;62.00;;;;;;;20.66;52.08;100968.31;4972934;28;20035;-76
2023/07/30 07:42:44;;;;;;;66.97;63.33;;;;;;;20.67;52.55;100969.94;4972697;28;20039;-76
2023/07/30 07:45:10;;;;;;;65.18;61.15;;;;;;;20.69;52.00;100977.88;4982361;28;20039;-77
2023/07/30 07:47:35;;;;;;;65.72;62.33;;;;;;;20.69;52.35;100973.19;5001019;28;20030;-76
2023/07/30 07:50:01;;;;;;;67.50;63.28;;;;;;;20.70;52.55;100983.03;4974248;28;20073;-77
2023/07/30 07:52:26;;;;;;;65.28;61.03;;;;;;;20.70;52.71;100983.03;4992222;28;20483;-77
2023/07/30 07:54:51;;;;;;;68.90;65.20;;;;;;;20.72;52.49;100980.81;4989518;28;20037;-76
2023/07/30 07:57:17;;;;;;;64.72;60.50;;;;;;;20.72;52.58;100977.25;4988546;28;20129;-77
2023/07/30 07:59:44;;;;;;;65.82;62.38;;;;;;;20.73;52.30;100978.88;4994746;28;20109;-77
2023/07/30 08:02:11;;;;;;;67.85;64.03;;;;;;;20.74;52.37;100988.75;4991156;28;20043;-75
2023/07/30 08:04:36;;;;;;;68.25;63.38;;;;;;;20.74;52.76;100986.00;4981963;28;20498;-75
2023/07/30 08:07:03;;;;;;;67.20;63.60;;;;;;;20.75;52.71;100987.63;4989839;28;20082;-75
2023/07/30 08:09:29;;;;;;;66.38;62.60;;;;;;;20.77;52.44;100981.81;4991245;28;20113;-75
2023/07/30 08:11:54;;;;;;;68.10;64.25;;;;;;;20.77;52.59;100995.56;4986299;28;20045;-76
2023/07/30 08:14:20;;;;;;;63.72;60.38;;;;;;;20.77;52.90;100993.63;4987299;28;20035;-76
2023/07/30 08:16:45;;;;;;;68.57;64.65;;;;;;;20.78;52.53;100991.69;4972210;28;20031;-76
2023/07/30 08:19:11;;;;;;;65.43;61.83;;;;;;;20.80;52.33;100997.69;4972145;28;20027;-77
2023/07/30 08:21:36;;;;;;;65.63;62.25;;;;;;;20.80;52.33;100986.69;4976794;28;20388;-76
2023/07/30 08:24:02;;;;;;;67.32;63.83;;;;;;;20.81;52.42;100991.06;4998502;28;20034;-78
2023/07/30 08:26:27;;;;;;;67.43;63.80;;;;;;;20.80;52.55;100986.69;4975287;28;20042;-78
2023/07/30 08:28:53;;;;;;;70.38;66.07;;;;;;;20.82;52.76;100996.25;4971451;28;20039;-78
2023/07/30 08:31:18;;;;;;;68.18;63.80;;;;;;;20.83;52.71;100994.31;5005410;28;20479;-78
2023/07/30 08:33:44;;;;;;;70.30;66.18;;;;;;;20.85;52.85;100989.34;4989442;28;20042;-78
2023/07/30 08:36:09;;;;;;;65.78;62.53;;;;;;;20.85;52.42;100987.41;4974356;28;20035;-78
2023/07/30 08:38:34;;;;;;;72.00;67.78;;;;;;;20.87;52.48;100985.16;4963163;28;20043;-79
2023/07/30 08:41:00;;;;;;;67.25;64.03;;;;;;;20.89;52.35;100979.34;4986435;28;20139;-78
2023/07/30 08:43:26;;;;;;;68.55;64.97;;;;;;;20.87;52.82;100982.44;4975544;28;20423;-78
2023/07/30 08:45:51;;;;;;;69.82;65.80;;;;;;;20.91;52.47;100988.09;4975000;28;20027;-78
2023/07/30 08:48:17;;;;;;;69.32;65.30;;;;;;;20.91;52.71;100983.41;4986716;28;20072;-77
2023/07/30 08:50:43;;;;;;;71.18;66.97;;;;;;;20.92;52.84;100982.31;5010023;28;20410;-77
2023/07/30 08:53:09;;;;;;;69.68;65.97;;;;;;;20.93;52.84;100981.19;4981761;28;20120;-77
2023/07/30 08:55:37;;;;;;;69.93;65.93;;;;;;;20.94;53.04;100977.34;4975457;28;20039;-77
2023/07/30 08:58:04;;;;;;;69.47;65.85;;;;;;;20.96;53.13;100979.75;4985268;28;20034;-77
2023/07/30 09:00:33;;;;;;;65.70;62.25;;;;;;;20.98;53.38;100982.22;4983016;28;20043;-78
2023/07/30 09:03:00;;;;;;;68.88;65.30;;;;;;;21.00;53.01;100985.47;4984989;28;20034;-76
2023/07/30 09:05:29;;;;;;;69.45;65.85;;;;;;;21.02;53.30;100983.22;4979137;28;20494;-77
2023/07/30 09:07:55;;;;;;;73.30;68.75;;;;;;;21.04;53.12;100979.06;4978083;28;20137;-78
2023/07/30 09:10:21;;;;;;;66.97;63.63;;;;;;;21.07;53.03;100980.38;4974656;28;20121;-76
2023/07/30 09:12:55;;;;;;;70.63;66.40;;;;;;;21.09;53.09;100976.19;4993817;28;20070;-76
2023/07/30 09:15:38;;;;;;;67.97;63.97;;;;;;;21.13;52.98;100981.88;4989796;28;20038;-77
2023/07/30 09:18:06;;;;;;;69.22;65.53;;;;;;;21.15;53.00;100972.22;4982830;28;20438;-78
2023/07/30 09:20:41;;;;;;;70.53;66.82;;;;;;;21.20;53.20;100979.53;4975425;28;20035;-78
2023/07/30 09:23:08;;;;;;;70.10;66.55;;;;;;;21.23;53.36;100980.84;4991598;28;20034;-78
2023/07/30 09:25:38;;;;;;;67.82;64.63;;;;;;;21.26;53.18;100980.22;4996291;28;20108;-78
2023/07/30 09:28:05;;;;;;;68.07;63.88;;;;;;;21.28;53.21;100980.72;4974093;28;20058;-76
2023/07/30 09:30:30;;;;;;;69.65;66.15;;;;;;;21.31;52.97;100980.09;4980951;28;20038;-76
2023/07/30 09:32:57;;;;;;;67.28;64.15;;;;;;;21.33;53.18;100988.88;4981675;28;20113;-76
2023/07/30 09:35:24;;;;;;;69.75;65.82;;;;;;;21.35;52.96;100984.69;4974481;28;20030;-76
2023/07/30 09:37:57;;;;;;;73.72;69.57;;;;;;;21.39;52.62;100993.13;4987119;28;20031;-73
2023/07/30 09:40:31;;;;;;;71.10;66.68;;;;;;;21.41;53.33;100990.91;4994527;28;20045;-77
2023/07/30 09:42:57;;;;;;;72.18;67.97;;;;;;;21.44;53.19;100997.72;4980686;28;20506;-79
2023/07/30 09:45:24;;;;;;;71.05;67.28;;;;;;;21.46;53.20;101004.53;4981657;28;20141;-78
2023/07/30 09:47:51;;;;;;;70.30;66.60;;;;;;;21.49;52.87;101001.16;4991469;28;20030;-78
2023/07/30 09:50:18;;;;;;;74.43;70.43;;;;;;;21.51;52.68;101001.66;4989294;28;20038;-79
2023/07/30 09:52:44;;;;;;;71.28;67.82;;;;;;;21.54;52.89;101003.78;4987423;28;20132;-78
2023/07/30 09:55:10;;;;;;;74.75;71.15;;;;;;;21.56;52.97;101012.53;4978598;28;20043;-78
2023/07/30 09:57:39;;;;;;;69.90;66.50;;;;;;;21.58;52.87;101018.53;4974105;28;20031;-79
2023/07/30 10:00:06;;;;;;;73.55;69.60;;;;;;;21.61;52.92;101017.09;4985744;28;20039;-78
2023/07/30 10:02:39;;;;;;;70.35;66.72;;;;;;;21.63;52.76;101014.06;5004086;28;20051;-78
2023/07/30 10:05:11;;;;;;;73.95;69.30;;;;;;;21.65;52.64;101023.63;4979482;28;20493;-78
2023/07/30 10:07:41;;;;;;;72.35;68.55;;;;;;;21.67;52.90;101028.78;4992427;28;20050;-79
2023/07/30 10:10:08;;;;;;;69.57;66.47;;;;;;;21.68;52.44;101033.19;4981562;28;20565;-78
2023/07/30 10:12:35;;;;;;;73.25;69.60;;;;;;;21.70;52.88;101040.00;4973764;28;20113;-77
2023/07/30 10:15:02;;;;;;;73.20;68.80;;;;;;;21.71;52.38;101036.09;4975869;28;20121;-77
2023/07/30 10:17:28;;;;;;;72.45;68.50;;;;;;;21.73;52.86;101041.31;4983245;28;20189;-77
2023/07/30 10:19:54;;;;;;;71.47;67.93;;;;;;;21.74;52.62;101035.47;4969314;28;20589;-77
2023/07/30 10:22:25;;;;;;;72.75;69.18;;;;;;;21.77;52.84;101048.63;4992603;28;20030;-78
2023/07/30 10:24:59;;;;;;;70.72;67.43;;;;;;;21.79;52.47;101043.59;4992005;28;20071;-76
2023/07/30 10:27:26;;;;;;;71.30;67.90;;;;;;;21.82;52.47;101050.44;4986418;28;20036;-78
2023/07/30 10:30:17;;;;;;;71.72;67.50;;;;;;;21.82;52.86;101045.75;4996250;28;20046;-77
2023/07/30 10:33:03;;;;;;;70.93;67.32;;;;;;;21.84;52.47;101045.44;4973862;28;20113;-78
2023/07/30 10:35:35;;;;;;;74.28;70.55;;;;;;;21.86;52.62;101043.19;4982355;28;20038;-77
2023/07/30 10:38:15;;;;;;;74.18;70.57;;;;;;;21.88;52.57;101048.38;4992150;28;20046;-77
2023/07/30 10:40:41;;;;;;;71.40;67.95;;;;;;;21.90;52.16;101054.38;4992376;28;20030;-73
2023/07/30 10:43:16;;;;;;;73.70;69.53;;;;;;;21.89;51.95;101053.56;4982364;28;20395;-76
2023/07/30 10:45:49;;;;;;;70.50;67.20;;;;;;;21.91;52.03;101062.31;4979783;28;20076;-76
2023/07/30 10:48:15;;;;;;;71.68;68.18;;;;;;;21.93;52.07;101068.31;4983517;28;20030;-76
2023/07/30 10:50:40;;;;;;;73.93;70.20;;;;;;;21.94;52.65;101056.19;5008714;28;20053;-75
2023/07/30 10:53:08;;;;;;;74.88;71.10;;;;;;;21.96;52.08;101051.19;4983447;28;20038;-76
2023/07/30 10:55:34;;;;;;;73.83;70.53;;;;;;;21.98;52.41;101043.44;4991032;28;20038;-76
2023/07/30 10:57:59;;;;;;;73.65;70.05;;;;;;;22.01;51.91;101047.50;4975715;28;20058;-76
2023/07/30 11:00:25;;;;;;;74.30;70.50;;;;;;;22.02;51.80;101055.47;4984248;28;20038;-76
2023/07/30 11:02:54;;;;;;;74.50;70.85;;;;;;;22.06;51.78;101060.34;4982140;28;20038;-76
2023/07/30 11:05:20;;;;;;;74.40;70.70;;;;;;;22.07;51.98;101050.94;4972527;28;20045;-76